sensor_id;sensor_type;location;lat;lon;timestamp;pressure;altitude;pressure_sealevel;temperature;humidity
26635;BME280;14490;54.208;37.686;2022-07-29T00:00:01;99183.97;;;17.34;100.00
26635;BME280;14490;54.208;37.686;2022-07-29T00:02:32;99185.66;;;17.35;100.00
26635;BME280;14490;54.208;37.686;2022-07-29T00:05:00;99279.91;;;17.75;100.00
26635;BME280;14490;54.208;37.686;2022-07-29T00:07:28;99114.31;;;16.70;100.00
26635;BME280;14490;54.208;37.686;2022-07-29T00:09:56;99285.94;;;17.63;100.00
26635;BME280;14490;54.208;37.686;2022-07-29T00:12:24;99285.94;;;17.63;100.00
26635;BME280;14490;54.208;37.686;2022-07-29T00:14:55;99275.06;;;17.46;100.00
26635;BME280;14490;54.208;37.686;2022-07-29T00:17:26;99257.78;;;17.23;100.00
26635;BME280;14490;54.208;37.686;2022-07-29T00:19:55;99294.97;;;17.55;100.00
26635;BME280;14490;54.208;37.686;2022-07-29T00:22:23;99301.06;;;17.57;100.00
26635;BME280;14490;54.208;37.686;2022-07-29T00:24:50;99155.75;;;16.80;100.00
26635;BME280;14490;54.208;37.686;2022-07-29T00:27:18;99270.78;;;17.52;100.00
26635;BME280;14490;54.208;37.686;2022-07-29T00:29:46;99261.66;;;17.37;100.00
26635;BME280;14490;54.208;37.686;2022-07-29T00:32:14;99294.75;;;17.65;100.00
26635;BME280;14490;54.208;37.686;2022-07-29T00:34:41;99276.88;;;17.54;100.00
26635;BME280;14490;54.208;37.686;2022-07-29T00:37:28;99292.19;;;17.63;100.00
26635;BME280;14490;54.208;37.686;2022-07-29T00:39:55;99290.69;;;17.61;100.00
26635;BME280;14490;54.208;37.686;2022-07-29T00:42:23;99296.13;;;17.61;100.00
26635;BME280;14490;54.208;37.686;2022-07-29T00:44:51;99296.66;;;17.56;100.00
26635;BME280;14490;54.208;37.686;2022-07-29T00:47:19;99300.06;;;17.50;100.00
26635;BME280;14490;54.208;37.686;2022-07-29T00:49:47;99298.19;;;17.42;100.00
26635;BME280;14490;54.208;37.686;2022-07-29T00:52:15;99171.41;;;16.62;100.00
26635;BME280;14490;54.208;37.686;2022-07-29T00:54:44;99299.72;;;17.37;100.00
26635;BME280;14490;54.208;37.686;2022-07-29T00:57:12;99280.22;;;17.09;100.00
26635;BME280;14490;54.208;37.686;2022-07-29T00:59:40;99226.75;;;16.69;100.00
26635;BME280;14490;54.208;37.686;2022-07-29T01:02:08;99308.25;;;17.18;100.00
26635;BME280;14490;54.208;37.686;2022-07-29T01:04:36;99300.66;;;17.05;100.00
26635;BME280;14490;54.208;37.686;2022-07-29T01:07:04;99190.03;;;16.25;100.00
26635;BME280;14490;54.208;37.686;2022-07-29T01:09:34;99318.31;;;17.01;100.00
26635;BME280;14490;54.208;37.686;2022-07-29T01:12:05;99309.66;;;16.89;100.00
26635;BME280;14490;54.208;37.686;2022-07-29T01:14:34;99193.63;;;16.25;100.00
26635;BME280;14490;54.208;37.686;2022-07-29T01:17:09;99309.47;;;16.99;100.00
26635;BME280;14490;54.208;37.686;2022-07-29T01:19:48;99148.78;;;15.97;100.00
26635;BME280;14490;54.208;37.686;2022-07-29T01:22:31;99313.03;;;17.08;100.00
26635;BME280;14490;54.208;37.686;2022-07-29T01:25:19;99233.38;;;16.59;100.00
26635;BME280;14490;54.208;37.686;2022-07-29T01:28:20;99320.03;;;17.02;100.00
26635;BME280;14490;54.208;37.686;2022-07-29T01:31:09;99322.53;;;16.87;100.00
26635;BME280;14490;54.208;37.686;2022-07-29T01:33:41;99309.63;;;16.73;100.00
26635;BME280;14490;54.208;37.686;2022-07-29T01:36:19;99330.53;;;16.89;100.00
26635;BME280;14490;54.208;37.686;2022-07-29T01:38:56;99333.25;;;16.89;100.00
26635;BME280;14490;54.208;37.686;2022-07-29T01:41:28;99332.06;;;16.91;100.00
26635;BME280;14490;54.208;37.686;2022-07-29T01:44:02;99240.47;;;16.44;100.00
26635;BME280;14490;54.208;37.686;2022-07-29T01:46:40;99308.09;;;16.79;100.00
26635;BME280;14490;54.208;37.686;2022-07-29T01:49:16;99337.69;;;16.90;100.00
26635;BME280;14490;54.208;37.686;2022-07-29T01:51:48;99335.97;;;16.89;100.00
26635;BME280;14490;54.208;37.686;2022-07-29T01:54:23;99321.38;;;16.90;100.00
26635;BME280;14490;54.208;37.686;2022-07-29T01:56:55;99243.00;;;16.37;100.00
26635;BME280;14490;54.208;37.686;2022-07-29T01:59:25;99313.53;;;16.79;100.00
26635;BME280;14490;54.208;37.686;2022-07-29T02:01:55;99306.72;;;16.75;100.00
26635;BME280;14490;54.208;37.686;2022-07-29T02:04:26;99324.06;;;16.82;100.00
26635;BME280;14490;54.208;37.686;2022-07-29T02:06:58;99319.31;;;16.76;100.00
26635;BME280;14490;54.208;37.686;2022-07-29T02:09:29;99198.34;;;16.07;100.00
26635;BME280;14490;54.208;37.686;2022-07-29T02:12:00;99207.16;;;16.09;100.00
26635;BME280;14490;54.208;37.686;2022-07-29T02:14:36;99307.44;;;16.77;100.00
26635;BME280;14490;54.208;37.686;2022-07-29T02:17:05;99252.88;;;16.38;100.00
26635;BME280;14490;54.208;37.686;2022-07-29T02:19:34;99321.72;;;16.87;100.00
26635;BME280;14490;54.208;37.686;2022-07-29T02:22:05;99332.91;;;16.92;100.00
26635;BME280;14490;54.208;37.686;2022-07-29T02:24:35;99215.00;;;16.28;100.00
26635;BME280;14490;54.208;37.686;2022-07-29T02:27:07;99330.19;;;16.92;100.00
26635;BME280;14490;54.208;37.686;2022-07-29T02:29:38;99177.63;;;15.98;100.00
26635;BME280;14490;54.208;37.686;2022-07-29T02:32:06;99331.22;;;16.83;100.00
26635;BME280;14490;54.208;37.686;2022-07-29T02:34:37;99322.56;;;16.71;100.00
26635;BME280;14490;54.208;37.686;2022-07-29T02:37:08;99326.28;;;16.70;100.00
26635;BME280;14490;54.208;37.686;2022-07-29T02:39:37;99336.63;;;16.67;100.00
26635;BME280;14490;54.208;37.686;2022-07-29T02:42:11;99197.97;;;15.86;100.00
26635;BME280;14490;54.208;37.686;2022-07-29T02:44:43;99313.19;;;16.58;100.00
26635;BME280;14490;54.208;37.686;2022-07-29T02:47:16;99278.66;;;16.42;100.00
26635;BME280;14490;54.208;37.686;2022-07-29T02:49:52;99342.41;;;16.88;100.00
26635;BME280;14490;54.208;37.686;2022-07-29T02:52:26;99348.22;;;16.93;100.00
26635;BME280;14490;54.208;37.686;2022-07-29T02:54:58;99323.75;;;16.77;100.00
26635;BME280;14490;54.208;37.686;2022-07-29T02:57:32;99330.84;;;16.70;100.00
26635;BME280;14490;54.208;37.686;2022-07-29T03:00:06;99340.88;;;16.69;100.00
26635;BME280;14490;54.208;37.686;2022-07-29T03:02:38;99315.75;;;16.67;100.00
26635;BME280;14490;54.208;37.686;2022-07-29T03:05:11;99287.53;;;16.60;100.00
26635;BME280;14490;54.208;37.686;2022-07-29T03:07:43;99289.09;;;16.71;100.00
26635;BME280;14490;54.208;37.686;2022-07-29T03:10:13;99248.09;;;16.40;100.00
26635;BME280;14490;54.208;37.686;2022-07-29T03:12:41;99348.38;;;17.00;100.00
26635;BME280;14490;54.208;37.686;2022-07-29T03:15:12;99339.22;;;16.92;100.00
26635;BME280;14490;54.208;37.686;2022-07-29T03:17:40;99343.78;;;17.00;100.00
26635;BME280;14490;54.208;37.686;2022-07-29T03:20:13;99308.81;;;16.81;100.00
26635;BME280;14490;54.208;37.686;2022-07-29T03:22:42;99340.06;;;16.93;100.00
26635;BME280;14490;54.208;37.686;2022-07-29T03:25:12;99347.19;;;16.86;100.00
26635;BME280;14490;54.208;37.686;2022-07-29T03:27:41;99350.25;;;16.91;100.00
26635;BME280;14490;54.208;37.686;2022-07-29T03:30:10;99266.09;;;16.41;100.00
26635;BME280;14490;54.208;37.686;2022-07-29T03:32:40;99346.50;;;16.84;100.00
26635;BME280;14490;54.208;37.686;2022-07-29T03:35:09;99348.91;;;16.87;100.00
26635;BME280;14490;54.208;37.686;2022-07-29T03:37:37;99324.41;;;16.79;100.00
26635;BME280;14490;54.208;37.686;2022-07-29T03:40:07;99355.34;;;16.94;100.00
26635;BME280;14490;54.208;37.686;2022-07-29T03:42:36;99342.78;;;16.93;100.00
26635;BME280;14490;54.208;37.686;2022-07-29T03:45:10;99342.25;;;17.06;100.00
26635;BME280;14490;54.208;37.686;2022-07-29T03:47:45;99343.78;;;17.00;100.00
26635;BME280;14490;54.208;37.686;2022-07-29T03:50:17;99340.38;;;17.06;100.00
26635;BME280;14490;54.208;37.686;2022-07-29T03:52:47;99185.13;;;16.28;100.00
26635;BME280;14490;54.208;37.686;2022-07-29T03:55:16;99237.75;;;16.52;100.00
26635;BME280;14490;54.208;37.686;2022-07-29T03:57:45;99280.59;;;16.82;100.00
26635;BME280;14490;54.208;37.686;2022-07-29T04:00:15;99351.25;;;17.38;100.00
26635;BME280;14490;54.208;37.686;2022-07-29T04:02:43;99274.81;;;17.01;100.00
26635;BME280;14490;54.208;37.686;2022-07-29T04:05:14;99279.22;;;16.94;100.00
26635;BME280;14490;54.208;37.686;2022-07-29T04:07:43;99293.50;;;17.04;100.00
26635;BME280;14490;54.208;37.686;2022-07-29T04:10:11;99250.16;;;16.94;100.00
26635;BME280;14490;54.208;37.686;2022-07-29T04:12:41;99353.78;;;17.64;100.00
26635;BME280;14490;54.208;37.686;2022-07-29T04:15:10;99363.25;;;17.92;100.00
26635;BME280;14490;54.208;37.686;2022-07-29T04:17:39;99354.03;;;17.93;100.00
26635;BME280;14490;54.208;37.686;2022-07-29T04:20:08;99286.94;;;17.62;100.00
26635;BME280;14490;54.208;37.686;2022-07-29T04:22:38;99371.47;;;18.15;99.54
26635;BME280;14490;54.208;37.686;2022-07-29T04:25:07;99334.91;;;18.10;99.02
26635;BME280;14490;54.208;37.686;2022-07-29T04:27:35;99380.88;;;18.51;98.13
26635;BME280;14490;54.208;37.686;2022-07-29T04:30:23;99351.00;;;18.27;96.17
26635;BME280;14490;54.208;37.686;2022-07-29T04:32:52;99286.50;;;17.89;94.35
26635;BME280;14490;54.208;37.686;2022-07-29T04:35:20;99378.47;;;18.48;93.29
26635;BME280;14490;54.208;37.686;2022-07-29T04:37:48;99286.91;;;17.78;91.24
26635;BME280;14490;54.208;37.686;2022-07-29T04:40:16;99382.78;;;18.43;91.04
26635;BME280;14490;54.208;37.686;2022-07-29T04:42:44;99153.78;;;17.13;90.38
26635;BME280;14490;54.208;37.686;2022-07-29T04:45:11;99403.00;;;18.57;89.64
26635;BME280;14490;54.208;37.686;2022-07-29T04:47:39;99334.66;;;18.27;88.27
26635;BME280;14490;54.208;37.686;2022-07-29T04:50:10;99404.66;;;18.66;88.01
26635;BME280;14490;54.208;37.686;2022-07-29T04:52:38;99305.22;;;18.23;86.84
26635;BME280;14490;54.208;37.686;2022-07-29T04:55:06;99356.69;;;18.57;85.26
26635;BME280;14490;54.208;37.686;2022-07-29T04:57:40;99386.81;;;18.86;84.24
26635;BME280;14490;54.208;37.686;2022-07-29T05:00:10;99390.81;;;18.98;83.35
26635;BME280;14490;54.208;37.686;2022-07-29T05:02:38;99356.31;;;18.82;82.46
26635;BME280;14490;54.208;37.686;2022-07-29T05:05:07;99387.72;;;19.01;81.03
26635;BME280;14490;54.208;37.686;2022-07-29T05:07:36;99387.00;;;19.07;81.70
26635;BME280;14490;54.208;37.686;2022-07-29T05:10:05;99286.41;;;18.67;81.65
26635;BME280;14490;54.208;37.686;2022-07-29T05:12:33;99371.72;;;19.21;81.28
26635;BME280;14490;54.208;37.686;2022-07-29T05:15:01;99265.69;;;18.58;80.29
26635;BME280;14490;54.208;37.686;2022-07-29T05:17:29;99371.91;;;19.19;79.22
26635;BME280;14490;54.208;37.686;2022-07-29T05:19:57;99372.13;;;19.32;79.06
26635;BME280;14490;54.208;37.686;2022-07-29T05:22:26;99330.31;;;18.94;77.06
26635;BME280;14490;54.208;37.686;2022-07-29T05:24:57;99345.09;;;19.23;77.27
26635;BME280;14490;54.208;37.686;2022-07-29T05:27:29;99335.13;;;19.52;77.50
26635;BME280;14490;54.208;37.686;2022-07-29T05:29:59;99308.28;;;19.41;75.61
26635;BME280;14490;54.208;37.686;2022-07-29T05:32:27;99370.09;;;20.01;75.86
26635;BME280;14490;54.208;37.686;2022-07-29T05:34:55;99255.91;;;19.23;74.44
26635;BME280;14490;54.208;37.686;2022-07-29T05:37:22;99279.91;;;19.28;73.95
26635;BME280;14490;54.208;37.686;2022-07-29T05:39:56;99377.06;;;19.74;73.72
26635;BME280;14490;54.208;37.686;2022-07-29T05:42:25;99366.69;;;19.70;73.49
26635;BME280;14490;54.208;37.686;2022-07-29T05:44:55;99308.69;;;19.30;73.27
26635;BME280;14490;54.208;37.686;2022-07-29T05:47:23;99375.28;;;19.81;73.43
26635;BME280;14490;54.208;37.686;2022-07-29T05:49:51;99257.78;;;19.08;73.59
26635;BME280;14490;54.208;37.686;2022-07-29T05:52:19;99255.31;;;18.98;72.94
26635;BME280;14490;54.208;37.686;2022-07-29T05:54:47;99358.50;;;19.70;73.10
26635;BME280;14490;54.208;37.686;2022-07-29T05:57:18;99356.16;;;19.67;73.25
26635;BME280;14490;54.208;37.686;2022-07-29T05:59:46;99337.00;;;19.52;73.82
26635;BME280;14490;54.208;37.686;2022-07-29T06:02:15;99326.00;;;19.60;74.53
26635;BME280;14490;54.208;37.686;2022-07-29T06:04:43;99367.09;;;19.96;74.88
26635;BME280;14490;54.208;37.686;2022-07-29T06:07:11;99343.31;;;19.67;72.91
26635;BME280;14490;54.208;37.686;2022-07-29T06:09:40;99378.94;;;19.74;72.40
26635;BME280;14490;54.208;37.686;2022-07-29T06:12:09;99260.19;;;19.03;72.77
26635;BME280;14490;54.208;37.686;2022-07-29T06:14:39;99374.16;;;19.76;73.24
26635;BME280;14490;54.208;37.686;2022-07-29T06:17:07;99310.16;;;19.41;73.34
26635;BME280;14490;54.208;37.686;2022-07-29T06:19:35;99365.59;;;19.79;73.11
26635;BME280;14490;54.208;37.686;2022-07-29T06:22:03;99367.63;;;19.77;73.23
26635;BME280;14490;54.208;37.686;2022-07-29T06:24:31;99359.63;;;19.60;73.94
26635;BME280;14490;54.208;37.686;2022-07-29T06:26:59;99334.47;;;19.50;74.28
26635;BME280;14490;54.208;37.686;2022-07-29T06:29:26;99371.59;;;19.89;74.62
26635;BME280;14490;54.208;37.686;2022-07-29T06:31:56;99347.69;;;19.91;74.81
26635;BME280;14490;54.208;37.686;2022-07-29T06:34:24;99361.88;;;20.15;74.79
26635;BME280;14490;54.208;37.686;2022-07-29T06:36:51;99378.38;;;20.22;74.73
26635;BME280;14490;54.208;37.686;2022-07-29T06:39:19;99274.63;;;19.63;74.05
26635;BME280;14490;54.208;37.686;2022-07-29T06:41:48;99373.59;;;20.24;73.80
26635;BME280;14490;54.208;37.686;2022-07-29T06:44:16;99187.22;;;19.34;73.24
26635;BME280;14490;54.208;37.686;2022-07-29T06:46:44;99372.38;;;20.41;73.12
26635;BME280;14490;54.208;37.686;2022-07-29T06:49:16;99331.19;;;20.13;73.58
26635;BME280;14490;54.208;37.686;2022-07-29T06:51:43;99369.50;;;20.49;73.83
26635;BME280;14490;54.208;37.686;2022-07-29T06:54:12;99339.16;;;20.44;73.91
26635;BME280;14490;54.208;37.686;2022-07-29T06:56:39;99286.81;;;20.26;73.03
26635;BME280;14490;54.208;37.686;2022-07-29T06:59:10;99250.81;;;20.08;73.08
26635;BME280;14490;54.208;37.686;2022-07-29T07:01:40;99372.59;;;20.97;72.94
26635;BME280;14490;54.208;37.686;2022-07-29T07:04:10;99375.19;;;21.05;71.81
26635;BME280;14490;54.208;37.686;2022-07-29T07:06:40;99362.53;;;21.04;69.42
26635;BME280;14490;54.208;37.686;2022-07-29T07:09:08;99279.31;;;20.70;69.32
26635;BME280;14490;54.208;37.686;2022-07-29T07:11:36;99273.44;;;20.73;69.13
26635;BME280;14490;54.208;37.686;2022-07-29T07:14:04;99376.38;;;21.38;69.61
26635;BME280;14490;54.208;37.686;2022-07-29T07:16:31;99300.94;;;20.87;69.77
26635;BME280;14490;54.208;37.686;2022-07-29T07:19:00;99380.31;;;21.29;69.95
26635;BME280;14490;54.208;37.686;2022-07-29T07:21:28;99369.97;;;21.24;69.67
26635;BME280;14490;54.208;37.686;2022-07-29T07:23:57;99384.66;;;21.02;68.84
26635;BME280;14490;54.208;37.686;2022-07-29T07:26:26;99332.72;;;20.66;68.24
26635;BME280;14490;54.208;37.686;2022-07-29T07:28:54;99368.00;;;20.83;68.00
26635;BME280;14490;54.208;37.686;2022-07-29T07:31:22;99214.03;;;19.89;67.74
26635;BME280;14490;54.208;37.686;2022-07-29T07:33:50;99373.38;;;20.91;68.54
26635;BME280;14490;54.208;37.686;2022-07-29T07:36:22;99334.78;;;20.86;68.59
26635;BME280;14490;54.208;37.686;2022-07-29T07:38:50;99348.22;;;21.02;67.48
26635;BME280;14490;54.208;37.686;2022-07-29T07:41:19;99239.00;;;20.58;66.70
26635;BME280;14490;54.208;37.686;2022-07-29T07:43:48;99385.22;;;21.40;65.36
26635;BME280;14490;54.208;37.686;2022-07-29T07:46:15;99249.22;;;20.49;63.93
26635;BME280;14490;54.208;37.686;2022-07-29T07:48:43;99237.00;;;20.45;63.72
26635;BME280;14490;54.208;37.686;2022-07-29T07:51:11;99399.06;;;21.32;60.46
26635;BME280;14490;54.208;37.686;2022-07-29T07:53:39;99289.19;;;20.93;60.93
26635;BME280;14490;54.208;37.686;2022-07-29T07:56:07;99323.16;;;21.19;60.80
26635;BME280;14490;54.208;37.686;2022-07-29T07:58:36;99316.16;;;21.38;61.17
26635;BME280;14490;54.208;37.686;2022-07-29T08:01:04;99291.00;;;21.28;61.24
26635;BME280;14490;54.208;37.686;2022-07-29T08:03:32;99381.78;;;21.80;58.90
26635;BME280;14490;54.208;37.686;2022-07-29T08:06:00;99371.72;;;21.88;59.32
26635;BME280;14490;54.208;37.686;2022-07-29T08:08:28;99370.03;;;21.87;59.86
26635;BME280;14490;54.208;37.686;2022-07-29T08:10:56;99376.31;;;21.80;58.13
26635;BME280;14490;54.208;37.686;2022-07-29T08:13:27;99300.06;;;21.29;57.94
26635;BME280;14490;54.208;37.686;2022-07-29T08:15:58;99385.81;;;21.85;57.65
26635;BME280;14490;54.208;37.686;2022-07-29T08:18:28;99351.13;;;21.70;58.56
26635;BME280;14490;54.208;37.686;2022-07-29T08:20:57;99380.31;;;22.06;58.43
26635;BME280;14490;54.208;37.686;2022-07-29T08:23:27;99298.69;;;21.67;58.65
26635;BME280;14490;54.208;37.686;2022-07-29T08:26:04;99256.06;;;21.64;58.80
26635;BME280;14490;54.208;37.686;2022-07-29T08:28:36;99345.56;;;22.19;58.24
26635;BME280;14490;54.208;37.686;2022-07-29T08:31:06;99307.81;;;22.15;58.26
26635;BME280;14490;54.208;37.686;2022-07-29T08:33:34;99368.94;;;22.56;57.50
26635;BME280;14490;54.208;37.686;2022-07-29T08:36:02;99377.59;;;22.53;57.22
26635;BME280;14490;54.208;37.686;2022-07-29T08:38:29;99357.44;;;22.74;55.93
26635;BME280;14490;54.208;37.686;2022-07-29T08:40:58;99372.09;;;22.53;52.43
26635;BME280;14490;54.208;37.686;2022-07-29T08:43:27;99337.84;;;22.29;52.71
26635;BME280;14490;54.208;37.686;2022-07-29T08:45:55;99337.94;;;22.49;53.64
26635;BME280;14490;54.208;37.686;2022-07-29T08:48:25;99142.81;;;21.78;54.42
26635;BME280;14490;54.208;37.686;2022-07-29T08:50:55;99362.25;;;23.52;54.65
26635;BME280;14490;54.208;37.686;2022-07-29T08:53:24;99371.13;;;23.74;54.25
26635;BME280;14490;54.208;37.686;2022-07-29T08:55:54;99360.97;;;23.61;54.66
26635;BME280;14490;54.208;37.686;2022-07-29T08:58:23;99362.22;;;23.39;54.18
26635;BME280;14490;54.208;37.686;2022-07-29T09:00:53;99250.97;;;22.37;53.35
26635;BME280;14490;54.208;37.686;2022-07-29T09:03:25;99319.50;;;22.91;54.40
26635;BME280;14490;54.208;37.686;2022-07-29T09:05:57;99279.19;;;22.98;55.65
26635;BME280;14490;54.208;37.686;2022-07-29T09:08:25;99280.22;;;23.23;55.17
26635;BME280;14490;54.208;37.686;2022-07-29T09:10:54;99322.28;;;23.63;54.47
26635;BME280;14490;54.208;37.686;2022-07-29T09:13:23;99337.53;;;23.52;54.54
26635;BME280;14490;54.208;37.686;2022-07-29T09:15:50;99363.88;;;23.20;54.57
26635;BME280;14490;54.208;37.686;2022-07-29T09:21:17;99303.03;;;22.91;55.53
26635;BME280;14490;54.208;37.686;2022-07-29T09:24:04;99278.09;;;22.72;55.60
26635;BME280;14490;54.208;37.686;2022-07-29T09:26:35;99359.03;;;23.16;56.07
26635;BME280;14490;54.208;37.686;2022-07-29T09:29:08;99338.06;;;22.89;55.57
26635;BME280;14490;54.208;37.686;2022-07-29T09:31:38;99296.81;;;22.62;55.32
26635;BME280;14490;54.208;37.686;2022-07-29T09:34:11;99360.50;;;23.12;53.65
26635;BME280;14490;54.208;37.686;2022-07-29T09:36:43;99290.78;;;23.00;53.19
26635;BME280;14490;54.208;37.686;2022-07-29T09:39:11;99364.75;;;23.47;52.48
26635;BME280;14490;54.208;37.686;2022-07-29T09:41:48;99329.28;;;23.52;53.67
26635;BME280;14490;54.208;37.686;2022-07-29T09:44:19;99254.03;;;22.88;53.40
26635;BME280;14490;54.208;37.686;2022-07-29T09:46:58;99278.94;;;22.79;52.86
26635;BME280;14490;54.208;37.686;2022-07-29T09:49:31;99248.94;;;22.65;52.34
26635;BME280;14490;54.208;37.686;2022-07-29T09:52:09;99357.56;;;23.59;53.04
26635;BME280;14490;54.208;37.686;2022-07-29T09:54:37;99336.25;;;23.48;51.61
26635;BME280;14490;54.208;37.686;2022-07-29T09:57:06;99330.50;;;23.23;50.50
26635;BME280;14490;54.208;37.686;2022-07-29T09:59:38;99133.75;;;21.85;49.79
26635;BME280;14490;54.208;37.686;2022-07-29T10:02:11;99372.38;;;23.45;50.54
26635;BME280;14490;54.208;37.686;2022-07-29T10:04:40;99200.38;;;22.52;50.37
26635;BME280;14490;54.208;37.686;2022-07-29T10:07:12;99290.16;;;23.11;50.92
26635;BME280;14490;54.208;37.686;2022-07-29T10:09:50;99235.06;;;22.79;51.26
26635;BME280;14490;54.208;37.686;2022-07-29T10:12:22;99277.28;;;23.18;50.78
26635;BME280;14490;54.208;37.686;2022-07-29T10:14:51;99327.81;;;23.43;50.76
26635;BME280;14490;54.208;37.686;2022-07-29T10:17:21;99374.06;;;23.85;51.17
26635;BME280;14490;54.208;37.686;2022-07-29T10:19:49;99373.22;;;23.91;50.76
26635;BME280;14490;54.208;37.686;2022-07-29T10:22:19;99276.00;;;23.14;49.95
26635;BME280;14490;54.208;37.686;2022-07-29T10:24:47;99377.03;;;23.71;49.76
26635;BME280;14490;54.208;37.686;2022-07-29T10:27:15;99326.06;;;23.35;49.84
26635;BME280;14490;54.208;37.686;2022-07-29T10:29:43;99376.59;;;23.80;50.38
26635;BME280;14490;54.208;37.686;2022-07-29T10:32:19;99329.72;;;23.43;49.87
26635;BME280;14490;54.208;37.686;2022-07-29T10:35:21;99377.44;;;23.74;50.16
26635;BME280;14490;54.208;37.686;2022-07-29T10:38:15;99333.50;;;23.61;50.92
26635;BME280;14490;54.208;37.686;2022-07-29T10:41:01;99356.91;;;24.16;50.83
26635;BME280;14490;54.208;37.686;2022-07-29T10:43:56;99313.25;;;24.33;52.04
26635;BME280;14490;54.208;37.686;2022-07-29T10:46:27;99343.09;;;24.80;50.98
26635;BME280;14490;54.208;37.686;2022-07-29T10:49:06;99362.34;;;24.87;48.24
26635;BME280;14490;54.208;37.686;2022-07-29T10:51:58;99281.81;;;24.16;48.19
26635;BME280;14490;54.208;37.686;2022-07-29T10:54:43;99369.91;;;24.47;49.25
26635;BME280;14490;54.208;37.686;2022-07-29T10:57:21;99325.81;;;24.03;49.97
26635;BME280;14490;54.208;37.686;2022-07-29T11:00:25;99360.44;;;24.30;50.80
26635;BME280;14490;54.208;37.686;2022-07-29T11:02:54;99268.75;;;23.85;50.61
26635;BME280;14490;54.208;37.686;2022-07-29T11:05:24;99206.69;;;23.58;49.71
26635;BME280;14490;54.208;37.686;2022-07-29T11:08:17;99357.00;;;24.41;48.65
26635;BME280;14490;54.208;37.686;2022-07-29T11:10:51;99266.00;;;23.91;49.47
26635;BME280;14490;54.208;37.686;2022-07-29T11:13:50;99294.50;;;24.04;48.86
26635;BME280;14490;54.208;37.686;2022-07-29T11:16:21;99356.88;;;24.23;48.72
26635;BME280;14490;54.208;37.686;2022-07-29T11:19:20;99359.19;;;24.26;49.81
26635;BME280;14490;54.208;37.686;2022-07-29T11:21:49;99347.81;;;24.16;50.25
26635;BME280;14490;54.208;37.686;2022-07-29T11:24:19;99360.03;;;24.20;48.66
26635;BME280;14490;54.208;37.686;2022-07-29T11:27:11;99308.13;;;23.72;49.12
26635;BME280;14490;54.208;37.686;2022-07-29T11:29:48;99369.81;;;24.16;49.21
26635;BME280;14490;54.208;37.686;2022-07-29T11:32:22;99347.81;;;23.96;50.30
26635;BME280;14490;54.208;37.686;2022-07-29T11:35:12;99370.25;;;24.13;49.68
26635;BME280;14490;54.208;37.686;2022-07-29T11:37:41;99228.47;;;23.13;49.79
26635;BME280;14490;54.208;37.686;2022-07-29T11:40:15;99366.00;;;23.90;50.32
26635;BME280;14490;54.208;37.686;2022-07-29T11:42:48;99358.41;;;23.86;50.29
26635;BME280;14490;54.208;37.686;2022-07-29T11:45:21;99251.91;;;23.22;50.18
26635;BME280;14490;54.208;37.686;2022-07-29T11:47:56;99259.13;;;23.43;49.69
26635;BME280;14490;54.208;37.686;2022-07-29T11:50:42;99339.31;;;24.17;49.60
26635;BME280;14490;54.208;37.686;2022-07-29T11:53:11;99362.25;;;24.62;49.74
26635;BME280;14490;54.208;37.686;2022-07-29T11:55:40;99267.19;;;24.22;50.50
26635;BME280;14490;54.208;37.686;2022-07-29T11:58:10;99353.25;;;24.80;50.87
26635;BME280;14490;54.208;37.686;2022-07-29T12:00:39;99331.75;;;24.57;49.93
26635;BME280;14490;54.208;37.686;2022-07-29T12:03:10;99293.22;;;24.19;48.95
26635;BME280;14490;54.208;37.686;2022-07-29T12:05:41;99363.34;;;24.48;47.40
26635;BME280;14490;54.208;37.686;2022-07-29T12:08:14;99350.19;;;24.50;47.31
26635;BME280;14490;54.208;37.686;2022-07-29T12:10:45;99314.00;;;24.53;47.93
26635;BME280;14490;54.208;37.686;2022-07-29T12:13:16;99311.81;;;24.68;47.31
26635;BME280;14490;54.208;37.686;2022-07-29T12:16:05;99356.94;;;25.05;46.15
26635;BME280;14490;54.208;37.686;2022-07-29T12:18:55;99196.56;;;24.09;46.45
26635;BME280;14490;54.208;37.686;2022-07-29T12:21:23;99247.09;;;24.08;47.07
26635;BME280;14490;54.208;37.686;2022-07-29T12:23:55;99292.50;;;24.37;47.92
26635;BME280;14490;54.208;37.686;2022-07-29T12:26:24;99328.34;;;24.68;48.45
26635;BME280;14490;54.208;37.686;2022-07-29T12:28:55;99355.47;;;25.02;49.00
26635;BME280;14490;54.208;37.686;2022-07-29T12:31:22;99349.91;;;25.09;49.08
26635;BME280;14490;54.208;37.686;2022-07-29T12:33:52;99358.94;;;24.91;47.99
26635;BME280;14490;54.208;37.686;2022-07-29T12:36:20;99327.75;;;24.53;47.75
26635;BME280;14490;54.208;37.686;2022-07-29T12:38:48;99355.22;;;24.66;48.10
26635;BME280;14490;54.208;37.686;2022-07-29T12:41:16;99350.59;;;24.60;48.60
26635;BME280;14490;54.208;37.686;2022-07-29T12:43:54;99328.69;;;24.34;48.88
26635;BME280;14490;54.208;37.686;2022-07-29T12:46:22;99355.53;;;24.45;49.01
26635;BME280;14490;54.208;37.686;2022-07-29T12:48:51;99346.84;;;24.48;48.85
26635;BME280;14490;54.208;37.686;2022-07-29T12:51:28;99344.47;;;24.58;50.15
26635;BME280;14490;54.208;37.686;2022-07-29T12:54:05;99340.59;;;24.66;50.59
26635;BME280;14490;54.208;37.686;2022-07-29T12:56:34;99353.91;;;24.75;50.24
26635;BME280;14490;54.208;37.686;2022-07-29T12:59:13;99349.44;;;24.81;50.78
26635;BME280;14490;54.208;37.686;2022-07-29T13:01:42;99197.03;;;24.00;50.93
26635;BME280;14490;54.208;37.686;2022-07-29T13:04:10;99181.59;;;23.99;50.99
26635;BME280;14490;54.208;37.686;2022-07-29T13:06:39;99352.09;;;25.00;49.71
26635;BME280;14490;54.208;37.686;2022-07-29T13:09:10;99362.25;;;25.00;50.56
26635;BME280;14490;54.208;37.686;2022-07-29T13:11:40;99197.72;;;23.88;49.13